Time;durP1;ratioP1;P1;durP2;ratioP2;P2;SDS_P1;SDS_P2;PMS_P1;PMS_P2;Temp;Humidity;BMP_temperature;BMP_pressure;BME280_temperature;BME280_humidity;BME280_pressure;Samples;Min_cycle;Max_cycle;Signal;HPM_P1;HPM_P2
2022/03/21 06:37:53;;;;;;;98.38;43.88;;;;;;;;;;4903377;23;20047;-65
2022/03/21 06:40:20;;;;;;;101.93;44.30;;;;;;;;;;4955348;29;20045;-66
2022/03/21 06:42:46;;;;;;;105.95;45.53;;;;;;;;;;4955432;28;20028;-63
2022/03/21 06:45:12;;;;;;;97.38;43.33;;;;;;;;;;4955140;29;20027;-61
2022/03/21 06:47:39;;;;;;;99.85;43.17;;;;;;;;;;4955211;29;20102;-65
2022/03/21 06:50:06;;;;;;;96.00;45.67;;;;;;;;;;4954895;29;20031;-62
2022/03/21 06:52:38;;;;;;;98.85;51.25;;;;;;;;;;4954855;29;20035;-69
2022/03/21 06:55:05;;;;;;;100.72;48.78;;;;;;;;;;4955401;28;20027;-62
2022/03/21 06:57:31;;;;;;;99.00;54.13;;;;;;;;;;4955326;28;20038;-62
2022/03/21 06:59:57;;;;;;;87.07;42.92;;;;;;;;;;4954868;29;20039;-65
2022/03/21 07:02:23;;;;;;;82.50;44.28;;;;;;;;;;4955327;29;20090;-63
2022/03/21 07:04:50;;;;;;;91.82;46.60;;;;;;;;;;4954499;28;20399;-61
2022/03/21 07:07:16;;;;;;;83.25;42.33;;;;;;;;;;4954504;29;20050;-65
2022/03/21 07:09:42;;;;;;;288.27;131.23;;;;;;;;;;4954654;29;20031;-65
2022/03/21 07:12:08;;;;;;;125.93;62.60;;;;;;;;;;4955049;29;20027;-62
2022/03/21 07:14:34;;;;;;;103.90;51.00;;;;;;;;;;4955277;29;20027;-63
2022/03/21 07:17:00;;;;;;;100.47;48.65;;;;;;;;;;4953131;29;20443;-61
2022/03/21 07:19:26;;;;;;;88.82;46.03;;;;;;;;;;4954584;29;20530;-62
2022/03/21 07:21:52;;;;;;;83.57;42.97;;;;;;;;;;4955118;29;20039;-63
2022/03/21 07:24:18;;;;;;;84.32;40.50;;;;;;;;;;4953326;29;20065;-63
2022/03/21 07:26:44;;;;;;;79.28;40.55;;;;;;;;;;4954867;29;20066;-64
2022/03/21 07:29:12;;;;;;;84.88;41.60;;;;;;;;;;4954717;29;20089;-62
2022/03/21 07:31:38;;;;;;;82.10;41.08;;;;;;;;;;4954538;28;20038;-62
2022/03/21 07:34:05;;;;;;;80.05;41.75;;;;;;;;;;4954667;28;20533;-64
2022/03/21 07:36:31;;;;;;;75.90;39.67;;;;;;;;;;4954373;29;20054;-62
2022/03/21 07:38:58;;;;;;;81.32;41.00;;;;;;;;;;4954109;29;20370;-64
2022/03/21 07:41:27;;;;;;;86.00;41.70;;;;;;;;;;4954517;29;20027;-65
2022/03/21 07:43:54;;;;;;;101.20;48.65;;;;;;;;;;4954385;28;20015;-64
2022/03/21 07:49:05;;;;;;;83.00;43.88;;;;;;;;;;4954203;29;20038;-63
2022/03/21 07:51:31;;;;;;;83.82;42.83;;;;;;;;;;4954333;29;20027;-62
2022/03/21 07:53:57;;;;;;;86.47;42.42;;;;;;;;;;4953988;29;20023;-64
2022/03/21 07:56:23;;;;;;;97.55;46.55;;;;;;;;;;4954578;29;20023;-64
2022/03/21 07:58:50;;;;;;;77.72;41.78;;;;;;;;;;4953760;29;20023;-62
2022/03/21 08:01:16;;;;;;;80.97;42.63;;;;;;;;;;4953063;29;20031;-63
2022/03/21 08:03:43;;;;;;;87.85;44.10;;;;;;;;;;4953668;29;20046;-61
2022/03/21 08:06:10;;;;;;;86.45;43.45;;;;;;;;;;4952677;28;20035;-64
2022/03/21 08:08:38;;;;;;;82.00;43.30;;;;;;;;;;4952175;28;20047;-64
2022/03/21 08:11:05;;;;;;;97.85;47.00;;;;;;;;;;4955193;29;20034;-62
2022/03/21 08:13:31;;;;;;;90.15;46.08;;;;;;;;;;4958079;28;20042;-60
2022/03/21 08:15:59;;;;;;;89.88;44.13;;;;;;;;;;4953087;29;20023;-63
2022/03/21 08:18:25;;;;;;;85.93;44.05;;;;;;;;;;4951425;28;20114;-61
2022/03/21 08:20:51;;;;;;;81.00;43.25;;;;;;;;;;4951225;29;20666;-60
2022/03/21 08:23:18;;;;;;;83.35;43.03;;;;;;;;;;4952209;29;20027;-60
2022/03/21 08:25:46;;;;;;;91.53;44.67;;;;;;;;;;4951468;28;20054;-62
2022/03/21 08:28:14;;;;;;;88.50;44.85;;;;;;;;;;4950309;28;20364;-63
2022/03/21 08:30:40;;;;;;;86.15;44.05;;;;;;;;;;4951189;28;20541;-60
2022/03/21 08:33:08;;;;;;;84.20;42.30;;;;;;;;;;4951558;29;20356;-58
2022/03/21 08:35:36;;;;;;;79.85;42.55;;;;;;;;;;4951469;29;20150;-58
2022/03/21 08:38:02;;;;;;;108.90;58.35;;;;;;;;;;4947907;29;20086;-62
2022/03/21 08:40:28;;;;;;;145.95;70.55;;;;;;;;;;4950810;29;20051;-62
2022/03/21 08:42:55;;;;;;;86.78;43.10;;;;;;;;;;4950868;28;20078;-62
2022/03/21 08:45:21;;;;;;;92.68;44.13;;;;;;;;;;4949642;29;20027;-61
2022/03/21 08:47:49;;;;;;;111.35;54.55;;;;;;;;;;4952259;29;20027;-63
2022/03/21 08:50:15;;;;;;;91.95;45.08;;;;;;;;;;4951799;28;20020;-59
2022/03/21 08:52:41;;;;;;;82.82;43.65;;;;;;;;;;4951232;29;20063;-60
2022/03/21 08:55:08;;;;;;;75.30;40.15;;;;;;;;;;4951044;29;20038;-59
2022/03/21 08:57:34;;;;;;;75.47;36.75;;;;;;;;;;4950507;29;20023;-57
2022/03/21 09:00:02;;;;;;;74.35;39.60;;;;;;;;;;4951129;29;20499;-59
2022/03/21 09:02:29;;;;;;;80.22;39.92;;;;;;;;;;4951685;28;20489;-59
2022/03/21 09:04:55;;;;;;;67.55;34.58;;;;;;;;;;4951409;28;20023;-61
2022/03/21 09:07:21;;;;;;;68.00;34.83;;;;;;;;;;4950377;29;20023;-58
2022/03/21 09:09:47;;;;;;;80.07;39.70;;;;;;;;;;4953959;29;20011;-60
2022/03/21 09:12:13;;;;;;;68.60;36.47;;;;;;;;;;4956654;29;20031;-60
2022/03/21 09:14:39;;;;;;;60.40;31.40;;;;;;;;;;4950486;29;20046;-59
2022/03/21 09:17:05;;;;;;;72.38;35.92;;;;;;;;;;4950646;29;20035;-62
2022/03/21 09:19:31;;;;;;;55.88;31.02;;;;;;;;;;4948635;29;20042;-62
2022/03/21 09:21:57;;;;;;;63.33;31.58;;;;;;;;;;4950395;29;20080;-59
2022/03/21 09:24:24;;;;;;;59.60;32.65;;;;;;;;;;4950226;29;20767;-62
2022/03/21 09:26:50;;;;;;;73.00;34.30;;;;;;;;;;4950160;29;20045;-61
2022/03/21 09:29:16;;;;;;;71.43;33.47;;;;;;;;;;4950416;29;20471;-61
2022/03/21 09:31:42;;;;;;;76.35;35.05;;;;;;;;;;4951320;29;20093;-60
2022/03/21 09:34:09;;;;;;;69.95;35.45;;;;;;;;;;4951675;29;20097;-60
2022/03/21 09:36:36;;;;;;;93.43;42.78;;;;;;;;;;4950493;29;20039;-59
2022/03/21 09:39:02;;;;;;;56.08;28.85;;;;;;;;;;4950643;29;20039;-59
2022/03/21 09:41:30;;;;;;;57.20;29.88;;;;;;;;;;4951495;29;20110;-59
2022/03/21 09:44:00;;;;;;;62.70;31.27;;;;;;;;;;4950897;28;20062;-59
2022/03/21 09:46:26;;;;;;;61.67;31.45;;;;;;;;;;4951089;28;20058;-59
2022/03/21 09:48:53;;;;;;;57.55;29.27;;;;;;;;;;4948277;29;20055;-61
2022/03/21 09:51:23;;;;;;;60.22;30.08;;;;;;;;;;4951677;29;20027;-59
2022/03/21 09:53:50;;;;;;;56.20;29.10;;;;;;;;;;4950612;29;20369;-59
2022/03/21 09:56:16;;;;;;;52.20;27.08;;;;;;;;;;4946827;29;20058;-60
2022/03/21 09:58:43;;;;;;;47.25;25.85;;;;;;;;;;4951310;29;20031;-60
2022/03/21 10:01:11;;;;;;;47.38;25.33;;;;;;;;;;4950775;29;20039;-60
2022/03/21 10:03:38;;;;;;;38.58;22.15;;;;;;;;;;4950381;28;20539;-60
2022/03/21 10:06:24;;;;;;;44.67;21.13;;;;;;;;;;4951342;29;20452;-59
2022/03/21 10:08:50;;;;;;;35.17;19.08;;;;;;;;;;4948596;28;20056;-60
2022/03/21 10:11:22;;;;;;;35.60;20.30;;;;;;;;;;4950160;29;20496;-60
2022/03/21 10:13:48;;;;;;;;;;;;;;;;;;4950118;28;20024;-59
2022/03/21 10:16:18;;;;;;;34.00;18.23;;;;;;;;;;4950880;29;20003;-60
2022/03/21 10:19:04;;;;;;;37.13;19.52;;;;;;;;;;4950634;28;20035;-61
2022/03/21 10:21:30;;;;;;;36.92;18.85;;;;;;;;;;4948975;28;20043;-59
2022/03/21 10:24:02;;;;;;;23.00;13.20;;;;;;;;;;4950494;29;20106;-60
2022/03/21 10:26:33;;;;;;;25.73;12.13;;;;;;;;;;4949135;28;20034;-59
2022/03/21 10:29:00;;;;;;;23.83;12.63;;;;;;;;;;4956457;28;20205;-59
2022/03/21 10:31:53;;;;;;;24.77;13.70;;;;;;;;;;4953860;29;20035;-59
2022/03/21 10:34:23;;;;;;;27.05;13.18;;;;;;;;;;4952640;28;20430;-58
2022/03/21 10:37:05;;;;;;;21.98;12.18;;;;;;;;;;4945026;28;20071;-60
2022/03/21 10:39:31;;;;;;;;;;;;;;;;;;4949490;28;20066;-61
2022/03/21 10:42:02;;;;;;;22.45;12.75;;;;;;;;;;4952586;28;19910;-60
2022/03/21 10:44:28;;;;;;;21.80;12.43;;;;;;;;;;4953910;28;20054;-60
2022/03/21 10:46:56;;;;;;;25.13;12.35;;;;;;;;;;4952732;29;20035;-59
2022/03/21 10:49:33;;;;;;;30.05;15.52;;;;;;;;;;4953215;28;20512;-62
2022/03/21 10:52:00;;;;;;;32.40;16.38;;;;;;;;;;4972230;28;20058;-60
2022/03/21 10:54:50;;;;;;;31.60;16.85;;;;;;;;;;4959320;28;20495;-60
2022/03/21 10:57:31;;;;;;;23.88;13.20;;;;;;;;;;4948868;29;20475;-60
2022/03/21 11:00:17;;;;;;;27.30;14.27;;;;;;;;;;4955432;28;20062;-58
2022/03/21 11:02:51;;;;;;;26.50;13.40;;;;;;;;;;4954269;29;20027;-58
2022/03/21 11:05:18;;;;;;;20.50;11.93;;;;;;;;;;4953781;28;20034;-59
2022/03/21 11:07:45;;;;;;;21.42;11.82;;;;;;;;;;4953330;29;20471;-62
2022/03/21 11:10:12;;;;;;;21.52;12.65;;;;;;;;;;4952162;28;20688;-60
2022/03/21 11:12:38;;;;;;;15.45;9.38;;;;;;;;;;4955176;28;20469;-58
2022/03/21 11:15:06;;;;;;;15.40;8.73;;;;;;;;;;4952016;29;20479;-60
2022/03/21 11:17:33;;;;;;;13.30;7.50;;;;;;;;;;4952276;29;20086;-59
2022/03/21 11:20:02;;;;;;;12.70;8.30;;;;;;;;;;4955131;28;20106;-60
2022/03/21 11:22:29;;;;;;;15.30;9.07;;;;;;;;;;4969833;28;20031;-60
2022/03/21 11:25:00;;;;;;;15.75;9.10;;;;;;;;;;4954655;29;20030;-62
2022/03/21 11:27:45;;;;;;;16.37;9.17;;;;;;;;;;4954720;29;20033;-60
2022/03/21 11:30:14;;;;;;;18.52;9.50;;;;;;;;;;4954590;29;20035;-61
2022/03/21 11:32:43;;;;;;;19.52;9.65;;;;;;;;;;4954186;28;20036;-60
2022/03/21 11:35:17;;;;;;;16.55;9.15;;;;;;;;;;4954491;29;20023;-60
2022/03/21 11:37:44;;;;;;;17.48;8.95;;;;;;;;;;4953920;28;20047;-63
2022/03/21 11:40:28;;;;;;;14.00;8.32;;;;;;;;;;4953845;28;20403;-59
2022/03/21 11:43:14;;;;;;;14.65;9.63;;;;;;;;;;4954100;29;20490;-60
2022/03/21 11:45:41;;;;;;;16.90;9.60;;;;;;;;;;4896797;29;20048;-62
2022/03/21 11:48:30;;;;;;;14.73;8.57;;;;;;;;;;4898184;29;20035;-60
2022/03/21 11:50:56;;;;;;;15.80;9.13;;;;;;;;;;4855174;29;20389;-60
2022/03/21 11:53:29;;;;;;;18.13;10.00;;;;;;;;;;4854726;29;20536;-62
2022/03/21 11:55:55;;;;;;;16.92;9.07;;;;;;;;;;4856155;29;20056;-62
2022/03/21 11:58:24;;;;;;;21.08;10.50;;;;;;;;;;4856378;29;20412;-60
2022/03/21 12:01:02;;;;;;;17.50;9.40;;;;;;;;;;4857040;29;20037;-60
2022/03/21 12:03:33;;;;;;;17.17;9.57;;;;;;;;;;4860097;29;20065;-62
2022/03/21 12:06:19;;;;;;;20.13;12.63;;;;;;;;;;4863386;29;20041;-59
2022/03/21 12:09:06;;;;;;;24.23;12.60;;;;;;;;;;4864700;29;20053;-61
2022/03/21 12:11:38;;;;;;;20.63;11.63;;;;;;;;;;4855638;29;20145;-60
2022/03/21 12:14:28;;;;;;;21.95;12.38;;;;;;;;;;4856888;29;20052;-59
2022/03/21 12:17:01;;;;;;;19.98;12.45;;;;;;;;;;4801886;29;20039;-59
2022/03/21 12:22:29;;;;;;;26.50;14.30;;;;;;;;;;4806272;29;20034;-60
2022/03/21 12:24:56;;;;;;;26.83;15.35;;;;;;;;;;4820321;29;20380;-60
2022/03/21 12:27:31;;;;;;;25.10;13.23;;;;;;;;;;4834637;29;20060;-60
2022/03/21 12:30:16;;;;;;;23.13;13.23;;;;;;;;;;4875025;29;20029;-60
2022/03/21 12:32:54;;;;;;;24.00;13.25;;;;;;;;;;4875283;29;20044;-59
2022/03/21 12:35:35;;;;;;;20.30;12.38;;;;;;;;;;4875104;29;20093;-59
2022/03/21 12:38:04;;;;;;;20.38;12.57;;;;;;;;;;4875204;29;20085;-59
2022/03/21 12:40:31;;;;;;;26.17;13.68;;;;;;;;;;4874841;29;20445;-63
2022/03/21 12:42:58;;;;;;;26.38;13.82;;;;;;;;;;4875519;29;20437;-59
2022/03/21 12:45:25;;;;;;;26.42;14.70;;;;;;;;;;4876977;29;20464;-59
2022/03/21 12:47:51;;;;;;;23.35;13.73;;;;;;;;;;4878988;29;20037;-60
2022/03/21 12:50:19;;;;;;;24.20;13.65;;;;;;;;;;4882890;29;20568;-59
2022/03/21 12:52:51;;;;;;;20.80;12.88;;;;;;;;;;4883198;29;20036;-59
2022/03/21 12:55:18;;;;;;;21.73;13.13;;;;;;;;;;4949979;29;20574;-59
2022/03/21 12:58:10;;;;;;;26.80;13.45;;;;;;;;;;4951754;29;20034;-62
2022/03/21 13:00:40;;;;;;;26.65;13.27;;;;;;;;;;4949123;28;20043;-60
2022/03/21 13:03:10;;;;;;;25.25;12.07;;;;;;;;;;4952068;28;20035;-61
2022/03/21 13:11:23;;;;;;;21.00;11.73;;;;;;;;;;4952504;29;20128;-62
2022/03/21 13:13:53;;;;;;;20.38;11.60;;;;;;;;;;4952445;29;20027;-59
2022/03/21 13:16:20;;;;;;;24.63;11.88;;;;;;;;;;4952535;29;20479;-60
2022/03/21 13:18:46;;;;;;;17.20;10.73;;;;;;;;;;4952626;29;20035;-63
2022/03/21 13:21:12;;;;;;;20.13;10.80;;;;;;;;;;4952208;29;20570;-59
2022/03/21 13:23:43;;;;;;;19.85;10.07;;;;;;;;;;4952172;29;20031;-60
2022/03/21 13:26:17;;;;;;;18.48;9.63;;;;;;;;;;4952067;28;20035;-59
2022/03/21 13:28:44;;;;;;;17.75;9.80;;;;;;;;;;4952523;28;20023;-63
2022/03/21 13:31:12;;;;;;;18.70;10.57;;;;;;;;;;4952657;29;20029;-59
2022/03/21 13:33:39;;;;;;;18.33;10.23;;;;;;;;;;4952551;28;20023;-61
2022/03/21 13:36:07;;;;;;;16.25;10.32;;;;;;;;;;4951521;29;20063;-60
2022/03/21 13:38:34;;;;;;;17.60;8.93;;;;;;;;;;4952052;29;20035;-59
2022/03/21 13:41:00;;;;;;;17.00;9.98;;;;;;;;;;4952382;29;20508;-59
2022/03/21 13:43:28;;;;;;;18.83;10.02;;;;;;;;;;4952375;29;20024;-60
2022/03/21 13:45:56;;;;;;;21.48;10.38;;;;;;;;;;4951657;28;20117;-59
2022/03/21 13:48:33;;;;;;;18.45;9.90;;;;;;;;;;4951816;29;20476;-60
2022/03/21 13:51:07;;;;;;;21.23;9.43;;;;;;;;;;4952066;28;20392;-61
2022/03/21 13:53:37;;;;;;;17.38;9.52;;;;;;;;;;4951734;28;20081;-59
2022/03/21 13:56:04;;;;;;;17.42;10.27;;;;;;;;;;4951782;28;20466;-60
2022/03/21 13:58:31;;;;;;;19.90;10.48;;;;;;;;;;4951924;29;20028;-61
2022/03/21 14:00:57;;;;;;;16.80;9.63;;;;;;;;;;4952229;29;20486;-60
2022/03/21 14:03:33;;;;;;;18.58;10.27;;;;;;;;;;4952095;29;20402;-60
2022/03/21 14:06:00;;;;;;;25.27;12.65;;;;;;;;;;4952072;29;20054;-60
2022/03/21 14:08:27;;;;;;;15.65;9.45;;;;;;;;;;4954097;29;20043;-61
2022/03/21 14:11:05;;;;;;;16.85;10.75;;;;;;;;;;4955443;29;20043;-60
2022/03/21 14:13:34;;;;;;;20.10;10.75;;;;;;;;;;4952089;28;20488;-60
2022/03/21 14:16:00;;;;;;;17.60;10.52;;;;;;;;;;4954356;28;20427;-60
2022/03/21 14:18:31;;;;;;;16.70;10.15;;;;;;;;;;4956017;28;20385;-60
2022/03/21 14:21:00;;;;;;;17.08;9.90;;;;;;;;;;4955583;29;20043;-61
2022/03/21 14:23:26;;;;;;;20.50;9.88;;;;;;;;;;4954746;28;20019;-61
2022/03/21 14:28:37;;;;;;;21.55;10.23;;;;;;;;;;4955844;29;20182;-61
2022/03/21 14:31:04;;;;;;;22.02;11.00;;;;;;;;;;4955624;29;20106;-60
2022/03/21 14:33:31;;;;;;;20.23;10.55;;;;;;;;;;4955214;28;20027;-61
2022/03/21 14:35:57;;;;;;;20.30;11.02;;;;;;;;;;4954943;29;20035;-60
2022/03/21 14:38:23;;;;;;;37.45;15.80;;;;;;;;;;4955061;29;20035;-61
2022/03/21 14:40:49;;;;;;;25.05;12.40;;;;;;;;;;4955597;29;20131;-60
2022/03/21 14:43:15;;;;;;;30.17;12.95;;;;;;;;;;4955449;29;20023;-60
2022/03/21 14:45:41;;;;;;;19.90;10.57;;;;;;;;;;4952632;29;20038;-60
2022/03/21 14:48:08;;;;;;;24.92;12.85;;;;;;;;;;4952689;29;20074;-60
2022/03/21 14:50:34;;;;;;;28.65;13.07;;;;;;;;;;4970231;28;20647;-60
2022/03/21 14:53:02;;;;;;;15.70;8.52;;;;;;;;;;4960494;28;20031;-61
2022/03/21 14:55:29;;;;;;;15.63;8.52;;;;;;;;;;4964158;28;20027;-59
2022/03/21 14:57:55;;;;;;;21.58;10.30;;;;;;;;;;4967291;28;20023;-60
2022/03/21 15:00:22;;;;;;;39.10;16.33;;;;;;;;;;4956985;28;20094;-60
2022/03/21 15:02:48;;;;;;;19.88;11.98;;;;;;;;;;4967991;28;20031;-59
2022/03/21 15:05:14;;;;;;;13.82;7.60;;;;;;;;;;4961982;28;20061;-61
2022/03/21 15:07:40;;;;;;;15.32;8.45;;;;;;;;;;4961838;28;20448;-61
2022/03/21 15:10:24;;;;;;;19.17;10.13;;;;;;;;;;4980035;28;20091;-60
2022/03/21 15:12:52;;;;;;;19.20;10.20;;;;;;;;;;4943713;28;20023;-60
2022/03/21 15:15:19;;;;;;;29.70;13.75;;;;;;;;;;4967724;28;20463;-60
2022/03/21 15:17:45;;;;;;;24.88;12.52;;;;;;;;;;4935063;29;20404;-60
2022/03/21 15:20:12;;;;;;;61.78;28.38;;;;;;;;;;4935352;29;20522;-59
2022/03/21 15:22:38;;;;;;;21.48;11.00;;;;;;;;;;4935115;29;20035;-61
2022/03/21 15:25:05;;;;;;;37.38;16.50;;;;;;;;;;4934804;29;20032;-61
2022/03/21 15:27:31;;;;;;;24.65;12.85;;;;;;;;;;4934527;29;20032;-60
2022/03/21 15:29:57;;;;;;;17.80;9.63;;;;;;;;;;4935336;29;20028;-59
2022/03/21 15:32:23;;;;;;;12.85;7.97;;;;;;;;;;4935385;29;20087;-60
2022/03/21 15:34:50;;;;;;;15.80;9.10;;;;;;;;;;4935535;29;20434;-59
2022/03/21 15:42:46;;;;;;;17.75;9.88;;;;;;;;;;4935102;29;20046;-58
2022/03/21 15:45:12;;;;;;;15.73;8.48;;;;;;;;;;4934655;29;20107;-59
2022/03/21 15:47:38;;;;;;;17.23;9.48;;;;;;;;;;4934754;29;20027;-59
2022/03/21 15:50:05;;;;;;;23.73;11.48;;;;;;;;;;4934562;29;20043;-60
2022/03/21 15:52:34;;;;;;;19.45;10.50;;;;;;;;;;4934725;29;20086;-60
2022/03/21 15:55:00;;;;;;;23.35;11.63;;;;;;;;;;4934815;29;20106;-59
2022/03/21 15:57:27;;;;;;;21.33;10.68;;;;;;;;;;4934932;29;20361;-59
2022/03/21 15:59:55;;;;;;;17.83;8.60;;;;;;;;;;4937462;29;20086;-60
2022/03/21 16:02:23;;;;;;;16.90;9.50;;;;;;;;;;4942616;29;20024;-60
2022/03/21 16:04:52;;;;;;;15.70;8.60;;;;;;;;;;4945185;29;20023;-60
2022/03/21 16:07:20;;;;;;;16.05;8.85;;;;;;;;;;4935083;29;20110;-61
2022/03/21 16:09:46;;;;;;;20.77;10.82;;;;;;;;;;4934289;29;20062;-60
2022/03/21 16:12:12;;;;;;;15.98;8.50;;;;;;;;;;4940726;29;20050;-60
2022/03/21 16:14:38;;;;;;;18.02;8.77;;;;;;;;;;4935395;29;20106;-60
2022/03/21 16:17:04;;;;;;;16.58;9.18;;;;;;;;;;4933765;29;20023;-60
2022/03/21 16:19:30;;;;;;;17.75;9.50;;;;;;;;;;4934069;29;20032;-60
2022/03/21 16:21:56;;;;;;;14.02;8.60;;;;;;;;;;4934488;29;20041;-60
2022/03/21 16:24:23;;;;;;;14.13;8.52;;;;;;;;;;4933996;29;20047;-60
2022/03/21 16:26:49;;;;;;;33.35;15.18;;;;;;;;;;4934261;29;20062;-60
2022/03/21 16:29:15;;;;;;;13.50;8.45;;;;;;;;;;4934125;29;20031;-60
2022/03/21 16:31:41;;;;;;;17.90;9.88;;;;;;;;;;4934302;29;20069;-61
2022/03/21 16:34:08;;;;;;;16.08;9.13;;;;;;;;;;4933654;29;20065;-60
2022/03/21 16:36:35;;;;;;;17.92;9.23;;;;;;;;;;4932540;29;20399;-61
2022/03/21 16:39:05;;;;;;;19.75;9.65;;;;;;;;;;4933658;29;20039;-60
2022/03/21 16:41:31;;;;;;;20.38;10.43;;;;;;;;;;4933579;29;20384;-61
2022/03/21 16:43:57;;;;;;;16.25;9.48;;;;;;;;;;4933588;29;20035;-60
2022/03/21 16:46:23;;;;;;;21.05;10.80;;;;;;;;;;4934219;29;20490;-60
2022/03/21 16:48:49;;;;;;;18.65;9.98;;;;;;;;;;4933871;29;20035;-60
2022/03/21 16:51:24;;;;;;;20.85;11.13;;;;;;;;;;4952775;28;20101;-60
2022/03/21 16:53:50;;;;;;;19.55;10.82;;;;;;;;;;4955509;28;20042;-60
2022/03/21 16:56:17;;;;;;;21.30;11.02;;;;;;;;;;4936743;29;20036;-60
2022/03/21 16:58:44;;;;;;;17.73;10.15;;;;;;;;;;4956761;28;20232;-62
2022/03/21 17:01:10;;;;;;;38.60;15.27;;;;;;;;;;4959992;28;20046;-61
2022/03/21 17:03:37;;;;;;;24.77;12.63;;;;;;;;;;4957405;28;20036;-60
2022/03/21 17:06:03;;;;;;;30.83;15.85;;;;;;;;;;4964655;28;20055;-61
2022/03/21 17:08:29;;;;;;;27.58;13.93;;;;;;;;;;4954076;28;20062;-61
2022/03/21 17:10:58;;;;;;;28.80;15.50;;;;;;;;;;4972895;28;20030;-61
2022/03/21 17:13:25;;;;;;;27.48;14.35;;;;;;;;;;4974268;28;20117;-61
2022/03/21 17:15:52;;;;;;;31.42;16.92;;;;;;;;;;4972259;28;20034;-61
2022/03/21 17:23:43;;;;;;;30.35;14.90;;;;;;;;;;4961533;28;20423;-59
2022/03/21 17:26:11;;;;;;;51.10;24.92;;;;;;;;;;4946291;28;20072;-60
2022/03/21 17:28:38;;;;;;;32.83;16.13;;;;;;;;;;4923978;29;20031;-60
2022/03/21 17:31:05;;;;;;;35.83;16.52;;;;;;;;;;4949132;29;20038;-60
2022/03/21 17:33:32;;;;;;;33.50;17.10;;;;;;;;;;4951305;29;20026;-60
2022/03/21 17:35:59;;;;;;;46.92;23.13;;;;;;;;;;4940117;29;20023;-60
2022/03/21 17:38:36;;;;;;;29.10;14.63;;;;;;;;;;4946223;29;20046;-61
2022/03/21 17:41:04;;;;;;;37.13;19.85;;;;;;;;;;4947122;29;20126;-62
2022/03/21 17:43:30;;;;;;;47.10;26.60;;;;;;;;;;4933319;29;20028;-61
2022/03/21 17:45:57;;;;;;;42.78;20.90;;;;;;;;;;4934527;29;20030;-62
2022/03/21 17:48:23;;;;;;;56.17;26.98;;;;;;;;;;4934400;29;20024;-61
2022/03/21 17:50:49;;;;;;;101.40;47.35;;;;;;;;;;4936965;29;20114;-60
2022/03/21 17:53:34;;;;;;;82.97;44.28;;;;;;;;;;4937835;29;20467;-61
2022/03/21 17:56:05;;;;;;;51.38;27.92;;;;;;;;;;4945321;28;20475;-61
2022/03/21 17:58:31;;;;;;;41.17;20.80;;;;;;;;;;4958153;28;20028;-62
2022/03/21 18:00:57;;;;;;;40.75;22.20;;;;;;;;;;4966118;28;20115;-61
2022/03/21 18:03:24;;;;;;;78.25;34.92;;;;;;;;;;4960158;28;20478;-61
2022/03/21 18:05:53;;;;;;;58.60;27.98;;;;;;;;;;4958040;28;20066;-60
2022/03/21 18:08:22;;;;;;;60.10;28.38;;;;;;;;;;4967715;28;20101;-60
2022/03/21 18:10:48;;;;;;;59.00;26.48;;;;;;;;;;4959985;28;20039;-62
2022/03/21 18:13:14;;;;;;;33.42;17.80;;;;;;;;;;4962865;28;20063;-60
2022/03/21 18:15:45;;;;;;;44.83;22.33;;;;;;;;;;4977177;28;20169;-62
2022/03/21 18:18:12;;;;;;;52.88;23.58;;;;;;;;;;4943859;29;20482;-60
2022/03/21 18:20:47;;;;;;;66.30;27.98;;;;;;;;;;4967175;28;20075;-60
2022/03/21 18:23:14;;;;;;;63.65;29.63;;;;;;;;;;4963182;28;20078;-61
2022/03/21 18:25:40;;;;;;;87.15;36.38;;;;;;;;;;4964948;28;20039;-61
2022/03/21 18:28:07;;;;;;;88.75;37.50;;;;;;;;;;4966939;28;20028;-60
2022/03/21 18:30:33;;;;;;;91.18;40.08;;;;;;;;;;4957048;28;20098;-59
2022/03/21 18:32:59;;;;;;;74.90;34.80;;;;;;;;;;4974573;28;20471;-60
2022/03/21 18:35:25;;;;;;;70.07;32.60;;;;;;;;;;4974757;28;20431;-61
2022/03/21 18:37:51;;;;;;;63.88;29.77;;;;;;;;;;4968816;28;20458;-60
2022/03/21 18:40:18;;;;;;;61.67;30.83;;;;;;;;;;4955107;28;20039;-61
2022/03/21 18:42:44;;;;;;;80.50;36.00;;;;;;;;;;4963114;28;20078;-59
2022/03/21 18:45:11;;;;;;;70.70;35.10;;;;;;;;;;4955105;29;20078;-60
2022/03/21 18:47:41;;;;;;;76.63;36.00;;;;;;;;;;4963141;28;20475;-61
2022/03/21 18:50:07;;;;;;;94.82;40.35;;;;;;;;;;4961906;28;20035;-61
2022/03/21 18:52:33;;;;;;;87.15;37.40;;;;;;;;;;4956126;28;20059;-60
2022/03/21 18:55:00;;;;;;;90.20;39.55;;;;;;;;;;4969136;28;20127;-60
2022/03/21 18:57:27;;;;;;;83.20;35.60;;;;;;;;;;4974584;28;20046;-61
2022/03/21 18:59:53;;;;;;;81.30;36.45;;;;;;;;;;4974241;28;20077;-60
2022/03/21 19:02:19;;;;;;;74.70;33.70;;;;;;;;;;4973250;28;20035;-60
2022/03/21 19:04:45;;;;;;;92.82;39.67;;;;;;;;;;4974466;28;20058;-60
2022/03/21 19:07:11;;;;;;;80.72;37.88;;;;;;;;;;4956991;28;20035;-60
2022/03/21 19:09:38;;;;;;;83.63;34.85;;;;;;;;;;4974240;28;20035;-60
2022/03/21 19:12:04;;;;;;;76.43;35.83;;;;;;;;;;4974056;28;20031;-61
2022/03/21 19:14:30;;;;;;;85.68;37.60;;;;;;;;;;4973763;28;20482;-61
2022/03/21 19:16:57;;;;;;;74.53;34.90;;;;;;;;;;4973187;28;20038;-60
2022/03/21 19:19:23;;;;;;;79.30;37.05;;;;;;;;;;4973136;28;20094;-60
2022/03/21 19:21:49;;;;;;;91.70;40.03;;;;;;;;;;4964180;28;20039;-60
2022/03/21 19:24:15;;;;;;;87.90;38.70;;;;;;;;;;4959865;28;20046;-61
2022/03/21 19:26:42;;;;;;;86.35;39.42;;;;;;;;;;4964086;28;20089;-60
2022/03/21 19:29:08;;;;;;;86.85;40.28;;;;;;;;;;4954002;29;20024;-60
2022/03/21 19:31:37;;;;;;;91.35;39.47;;;;;;;;;;4964573;28;20035;-60
2022/03/21 19:34:04;;;;;;;85.28;40.33;;;;;;;;;;4960007;28;20034;-60
2022/03/21 19:36:30;;;;;;;98.63;43.35;;;;;;;;;;4973171;28;20170;-60
2022/03/21 19:39:00;;;;;;;100.55;46.35;;;;;;;;;;4973617;28;20043;-60
2022/03/21 19:41:27;;;;;;;104.00;46.05;;;;;;;;;;4973700;28;20066;-60
2022/03/21 19:43:53;;;;;;;106.60;46.80;;;;;;;;;;4973109;28;20030;-60
2022/03/21 19:46:20;;;;;;;104.93;45.67;;;;;;;;;;4973820;28;20124;-60
2022/03/21 19:48:46;;;;;;;126.95;51.17;;;;;;;;;;4973698;28;20058;-60
2022/03/21 19:51:12;;;;;;;180.45;74.07;;;;;;;;;;4948010;28;20031;-60
2022/03/21 19:53:38;;;;;;;135.93;56.85;;;;;;;;;;4934828;29;20031;-60
2022/03/21 19:56:04;;;;;;;128.50;53.40;;;;;;;;;;4935104;29;20020;-61
2022/03/21 19:58:33;;;;;;;100.57;43.95;;;;;;;;;;4934718;29;20034;-60
2022/03/21 20:00:59;;;;;;;98.70;42.45;;;;;;;;;;4934850;29;20547;-60
2022/03/21 20:03:25;;;;;;;106.82;42.78;;;;;;;;;;4934924;29;20400;-59
2022/03/21 20:05:51;;;;;;;93.40;40.13;;;;;;;;;;4934699;29;20035;-60
2022/03/21 20:08:17;;;;;;;79.82;36.45;;;;;;;;;;4934646;29;20035;-59
2022/03/21 20:10:44;;;;;;;88.10;38.47;;;;;;;;;;4939441;29;20031;-58
2022/03/21 20:13:12;;;;;;;78.18;36.63;;;;;;;;;;4953169;28;20023;-59
2022/03/21 20:15:38;;;;;;;80.68;36.67;;;;;;;;;;4953642;29;20743;-60
2022/03/21 20:18:05;;;;;;;92.10;40.88;;;;;;;;;;4953255;29;20027;-60
2022/03/21 20:20:32;;;;;;;100.20;46.20;;;;;;;;;;4940977;29;20036;-59
2022/03/21 20:22:58;;;;;;;94.28;44.58;;;;;;;;;;4933740;29;20027;-60
2022/03/21 20:25:29;;;;;;;95.57;43.63;;;;;;;;;;4933611;29;20662;-60
2022/03/21 20:27:56;;;;;;;84.00;38.33;;;;;;;;;;4934003;29;20016;-60
2022/03/21 20:30:22;;;;;;;92.13;41.03;;;;;;;;;;4934600;29;20074;-60
2022/03/21 20:32:49;;;;;;;101.22;44.47;;;;;;;;;;4934614;29;20696;-61
2022/03/21 20:35:18;;;;;;;99.70;45.40;;;;;;;;;;4934267;29;20587;-61
2022/03/21 20:37:44;;;;;;;113.97;50.10;;;;;;;;;;4925953;29;20048;-61
2022/03/21 20:40:11;;;;;;;107.05;47.42;;;;;;;;;;4933706;29;20098;-61
2022/03/21 20:42:37;;;;;;;115.57;49.45;;;;;;;;;;4933808;29;20171;-60
2022/03/21 20:45:04;;;;;;;112.95;49.28;;;;;;;;;;4954501;29;20060;-60
2022/03/21 20:47:30;;;;;;;106.05;46.92;;;;;;;;;;4954069;28;20023;-58
2022/03/21 20:49:57;;;;;;;111.60;48.95;;;;;;;;;;4952408;29;20035;-61
2022/03/21 20:52:25;;;;;;;106.15;47.05;;;;;;;;;;4952909;28;20061;-61
2022/03/21 20:54:51;;;;;;;113.40;48.47;;;;;;;;;;4952928;28;20051;-61
2022/03/21 20:57:19;;;;;;;104.90;47.17;;;;;;;;;;4952362;29;20046;-58
2022/03/21 20:59:46;;;;;;;94.40;44.58;;;;;;;;;;4952711;28;20043;-60
2022/03/21 21:02:12;;;;;;;89.75;42.90;;;;;;;;;;4950895;29;20027;-62
2022/03/21 21:04:38;;;;;;;98.30;45.20;;;;;;;;;;4952422;29;20031;-62
2022/03/21 21:07:04;;;;;;;93.53;42.70;;;;;;;;;;4952212;29;20027;-61
2022/03/21 21:09:30;;;;;;;101.03;44.60;;;;;;;;;;4952512;29;20110;-62
2022/03/21 21:11:56;;;;;;;100.75;45.30;;;;;;;;;;4951082;29;20031;-62
2022/03/21 21:14:22;;;;;;;97.00;44.25;;;;;;;;;;4952226;29;20038;-61
2022/03/21 21:16:49;;;;;;;94.53;41.80;;;;;;;;;;4951822;28;20038;-61
2022/03/21 21:19:19;;;;;;;89.85;43.33;;;;;;;;;;4952115;28;20109;-61
2022/03/21 21:21:45;;;;;;;92.43;42.33;;;;;;;;;;4951963;29;20042;-61
2022/03/21 21:24:11;;;;;;;97.10;41.38;;;;;;;;;;4950547;28;20055;-61
2022/03/21 21:26:38;;;;;;;87.22;41.55;;;;;;;;;;4950020;29;20042;-60